createdAt,value
2018-07-08T00:01:49.507Z,5.77
2018-07-08T00:04:21.160Z,6.00
2018-07-08T00:06:56.785Z,5.77
2018-07-08T00:09:27.759Z,5.80
2018-07-08T00:12:01.308Z,5.30
2018-07-08T00:14:32.847Z,5.60
2018-07-08T00:17:07.484Z,5.60
2018-07-08T00:19:38.057Z,6.00
2018-07-08T00:22:07.893Z,5.77
2018-07-08T00:24:37.436Z,5.97
2018-07-08T00:27:07.212Z,5.73
2018-07-08T00:29:38.528Z,5.80
2018-07-08T00:32:07.959Z,5.70
2018-07-08T00:34:38.036Z,5.80
2018-07-08T00:37:07.517Z,8.87
2018-07-08T00:42:14.694Z,7.70
2018-07-08T00:45:48.228Z,6.37
2018-07-08T00:48:20.412Z,6.07
2018-07-08T00:50:50.762Z,6.90
2018-07-08T00:53:22.906Z,6.17
2018-07-08T00:55:52.887Z,6.30
2018-07-08T00:58:22.076Z,5.80
2018-07-08T01:00:52.895Z,6.90
2018-07-08T01:03:23.662Z,7.10
2018-07-08T01:05:53.476Z,7.60
2018-07-08T01:08:22.887Z,8.97
2018-07-08T01:10:52.491Z,9.70
2018-07-08T01:13:22.573Z,9.57
2018-07-08T01:15:52.306Z,10.30
2018-07-08T01:18:22.152Z,9.10
2018-07-08T01:20:52.660Z,7.40
2018-07-08T01:23:22.213Z,6.80
2018-07-08T01:26:02.622Z,6.17
2018-07-08T01:28:32.041Z,6.40
2018-07-08T01:31:01.427Z,6.90
2018-07-08T01:33:30.730Z,5.97
2018-07-08T01:36:00.478Z,6.27
2018-07-08T01:38:34.093Z,6.00
2018-07-08T01:41:05.286Z,6.30
2018-07-08T01:43:37.028Z,5.80
2018-07-08T01:46:14.132Z,6.10
2018-07-08T01:48:46.088Z,5.40
2018-07-08T01:51:15.870Z,5.23
2018-07-08T01:53:48.182Z,5.23
2018-07-08T01:56:18.187Z,5.17
2018-07-08T01:58:53.326Z,5.17
2018-07-08T02:01:22.715Z,5.33
2018-07-08T02:06:33.186Z,5.03
2018-07-08T02:09:03.060Z,4.90
2018-07-08T02:11:38.875Z,4.70
2018-07-08T02:14:10.576Z,5.33
2018-07-08T02:16:41.138Z,4.80
2018-07-08T02:19:17.287Z,5.10
2018-07-08T02:21:47.778Z,4.73
2018-07-08T02:24:17.384Z,5.00
2018-07-08T02:26:47.026Z,4.70
2018-07-08T02:29:22.540Z,5.03
2018-07-08T02:31:51.839Z,5.17
2018-07-08T02:34:21.106Z,4.83
2018-07-08T02:36:52.827Z,4.50
2018-07-08T02:39:24.581Z,4.67
2018-07-08T02:41:54.218Z,4.70
2018-07-08T02:44:25.454Z,4.60
2018-07-08T02:46:55.568Z,4.70
2018-07-08T02:54:42.515Z,4.27
2018-07-08T02:57:12.887Z,4.50
2018-07-08T02:59:42.648Z,4.70
2018-07-08T03:02:12.126Z,4.40
2018-07-08T03:04:41.327Z,4.63
2018-07-08T03:07:10.328Z,4.70
2018-07-08T03:09:39.610Z,4.40
2018-07-08T03:12:08.901Z,5.30
2018-07-08T03:14:38.439Z,4.83
2018-07-08T03:17:08.206Z,4.37
2018-07-08T03:19:39.005Z,5.10
2018-07-08T03:22:09.650Z,4.77
2018-07-08T03:24:39.021Z,4.73
2018-07-08T03:27:11.206Z,5.00
2018-07-08T03:29:40.679Z,4.70
2018-07-08T03:32:11.399Z,4.37
2018-07-08T03:34:40.722Z,4.77
2018-07-08T03:37:10.117Z,4.53
2018-07-08T03:39:44.954Z,4.47
2018-07-08T03:42:17.733Z,4.60
2018-07-08T03:44:50.467Z,4.90
2018-07-08T03:47:23.802Z,5.10
2018-07-08T03:49:54.037Z,5.00
2018-07-08T03:52:27.416Z,4.43
2018-07-08T03:54:57.979Z,4.97
2018-07-08T03:57:27.342Z,4.80
2018-07-08T04:00:01.026Z,5.23
2018-07-08T04:02:35.078Z,5.30
2018-07-08T04:05:05.153Z,5.10
2018-07-08T04:07:35.732Z,5.17
2018-07-08T04:10:07.204Z,5.30
2018-07-08T04:12:36.811Z,5.60
2018-07-08T04:15:07.769Z,5.03
2018-07-08T04:17:37.047Z,5.63
2018-07-08T04:20:06.613Z,4.87
2018-07-08T04:22:36.198Z,5.13
2018-07-08T04:25:06.352Z,5.40
2018-07-08T04:27:37.355Z,5.33
2018-07-08T04:30:11.814Z,5.43
2018-07-08T04:32:43.743Z,5.00
2018-07-08T04:35:14.483Z,5.30
2018-07-08T04:37:47.146Z,5.27
2018-07-08T04:40:18.342Z,5.20
2018-07-08T04:42:48.866Z,4.80
2018-07-08T04:45:20.355Z,5.13
2018-07-08T04:47:51.926Z,4.27
2018-07-08T04:50:22.023Z,4.67
2018-07-08T04:52:52.157Z,4.40
2018-07-08T04:55:22.934Z,4.73
2018-07-08T04:57:55.303Z,4.83
2018-07-08T05:00:25.269Z,4.63
2018-07-08T05:02:55.294Z,4.20
2018-07-08T05:05:25.802Z,4.30
2018-07-08T05:07:58.704Z,4.40
2018-07-08T05:10:31.746Z,3.90
2018-07-08T05:13:03.368Z,4.40
2018-07-08T05:15:39.858Z,5.30
2018-07-08T05:18:11.867Z,5.30
2018-07-08T05:20:47.745Z,4.73
2018-07-08T05:23:17.171Z,5.27
2018-07-08T05:25:46.826Z,5.07
2018-07-08T05:28:16.996Z,5.07
2018-07-08T05:30:47.759Z,4.70
2018-07-08T05:33:20.084Z,5.40
2018-07-08T05:35:49.480Z,4.90
2018-07-08T05:38:19.077Z,5.00
2018-07-08T05:40:51.300Z,4.30
2018-07-08T05:43:35.797Z,4.37
2018-07-08T05:46:06.328Z,4.70
2018-07-08T05:48:43.732Z,4.63
2018-07-08T05:51:14.686Z,4.00
2018-07-08T05:53:44.805Z,4.00
2018-07-08T05:56:14.469Z,4.63
2018-07-08T05:58:44.043Z,4.77
2018-07-08T06:01:13.449Z,4.17
2018-07-08T06:03:43.797Z,3.83
2018-07-08T06:06:13.442Z,4.10
2018-07-08T06:08:42.627Z,4.60
2018-07-08T06:11:11.654Z,3.73
2018-07-08T06:13:41.307Z,3.47
2018-07-08T06:16:11.803Z,3.00
2018-07-08T06:18:43.105Z,3.30
2018-07-08T06:21:13.689Z,3.37
2018-07-08T06:23:44.010Z,3.00
2018-07-08T06:26:14.183Z,2.90
2018-07-08T06:28:43.341Z,3.23
2018-07-08T06:31:12.860Z,2.90
2018-07-08T06:33:42.054Z,2.67
2018-07-08T06:36:11.391Z,2.53
2018-07-08T06:38:40.703Z,2.77
2018-07-08T06:41:10.264Z,2.30
2018-07-08T06:43:40.346Z,2.53
2018-07-08T06:46:13.694Z,2.50
2018-07-08T06:48:46.359Z,2.53
2018-07-08T06:51:27.197Z,2.60
2018-07-08T06:53:59.166Z,2.80
2018-07-08T06:56:32.001Z,2.33
2018-07-08T06:59:02.290Z,2.50
2018-07-08T07:01:31.521Z,2.30
2018-07-08T07:04:01.165Z,2.33
2018-07-08T07:06:30.682Z,2.53
2018-07-08T07:09:00.761Z,2.47
2018-07-08T07:11:30.090Z,2.67
2018-07-08T07:14:00.720Z,2.60
2018-07-08T07:16:30.624Z,2.77
2018-07-08T07:19:01.219Z,2.80
2018-07-08T07:21:31.006Z,2.67
2018-07-08T07:24:05.539Z,2.70
2018-07-08T07:26:36.689Z,2.50
2018-07-08T07:29:06.635Z,2.77
2018-07-08T07:31:41.535Z,2.87
2018-07-08T07:34:11.146Z,2.40
2018-07-08T07:36:40.729Z,2.60
2018-07-08T07:39:11.011Z,2.60
2018-07-08T07:41:40.296Z,2.70
2018-07-08T07:44:10.581Z,2.43
2018-07-08T07:46:45.165Z,2.30
2018-07-08T07:49:17.317Z,2.57
2018-07-08T07:51:46.978Z,2.40
2018-07-08T07:54:19.895Z,2.30
2018-07-08T07:59:35.115Z,2.53
2018-07-08T08:02:05.876Z,2.20
2018-07-08T08:04:36.160Z,2.60
2018-07-08T08:07:05.883Z,2.13
2018-07-08T08:09:35.303Z,2.50
2018-07-08T08:12:04.901Z,2.20
2018-07-08T08:14:34.697Z,2.23
2018-07-08T08:17:03.900Z,2.50
2018-07-08T08:19:33.135Z,2.33
2018-07-08T08:22:02.857Z,2.40
2018-07-08T08:24:33.357Z,2.47
2018-07-08T08:27:03.752Z,2.90
2018-07-08T08:29:33.136Z,2.80
2018-07-08T08:32:07.568Z,3.03
2018-07-08T08:34:56.404Z,2.90
2018-07-08T08:37:27.948Z,2.57
2018-07-08T08:39:57.282Z,2.87
2018-07-08T08:42:26.890Z,2.77
2018-07-08T08:44:57.874Z,2.90
2018-07-08T08:47:28.804Z,2.30
2018-07-08T08:49:58.526Z,2.43
2018-07-08T08:52:31.967Z,2.50
2018-07-08T08:55:02.004Z,2.40
2018-07-08T09:02:53.566Z,2.30
2018-07-08T09:05:26.297Z,2.30
2018-07-08T09:07:58.220Z,2.60
2018-07-08T09:10:28.799Z,2.67
2018-07-08T09:13:10.953Z,2.67
2018-07-08T09:15:40.765Z,2.30
2018-07-08T09:21:09.442Z,2.00
2018-07-08T09:23:42.863Z,2.60
2018-07-08T09:26:13.046Z,2.20
2018-07-08T09:28:42.473Z,2.37
2018-07-08T09:31:12.578Z,2.17
2018-07-08T09:33:41.869Z,2.37
2018-07-08T09:36:12.177Z,2.30
2018-07-08T09:38:41.827Z,2.47
2018-07-08T09:41:11.305Z,2.50
2018-07-08T09:43:40.834Z,2.23
2018-07-08T09:46:10.368Z,2.30
2018-07-08T09:48:39.905Z,2.67
2018-07-08T09:51:10.108Z,2.67
2018-07-08T09:53:39.411Z,2.90
2018-07-08T09:56:08.679Z,2.60
2018-07-08T09:58:44.668Z,2.47
2018-07-08T10:01:23.933Z,2.73
2018-07-08T10:03:53.639Z,2.40
2018-07-08T10:06:23.062Z,2.20
2018-07-08T10:08:53.104Z,2.60
2018-07-08T10:11:24.720Z,2.20
2018-07-08T10:13:57.183Z,2.30
2018-07-08T10:16:29.695Z,2.10
2018-07-08T10:19:00.126Z,1.90
2018-07-08T10:21:31.006Z,2.03
2018-07-08T10:24:01.527Z,2.13
2018-07-08T10:26:33.162Z,2.73
2018-07-08T10:29:03.345Z,1.80
2018-07-08T10:31:43.672Z,1.80
2018-07-08T10:34:19.417Z,1.90
2018-07-08T10:36:55.063Z,1.83
2018-07-08T10:39:25.925Z,1.90
2018-07-08T10:41:57.604Z,2.00
2018-07-08T10:44:28.099Z,1.90
2018-07-08T10:47:00.131Z,1.87
2018-07-08T10:49:32.041Z,2.00
2018-07-08T10:52:02.239Z,2.00
2018-07-08T10:54:32.052Z,1.80
2018-07-08T10:57:04.281Z,1.90
2018-07-08T10:59:36.424Z,1.90
2018-07-08T11:02:07.257Z,1.73
2018-07-08T11:04:37.081Z,1.90
2018-07-08T11:07:13.381Z,1.80
2018-07-08T11:09:45.335Z,1.80
2018-07-08T11:12:16.111Z,2.00
2018-07-08T11:15:00.697Z,1.93
2018-07-08T11:17:40.998Z,1.70
2018-07-08T11:20:21.772Z,1.67
2018-07-08T11:22:54.160Z,1.80
2018-07-08T11:25:28.940Z,1.70
2018-07-08T11:28:07.983Z,1.83
2018-07-08T11:30:42.410Z,1.60
2018-07-08T11:33:30.045Z,1.73
2018-07-08T11:36:02.801Z,1.97
2018-07-08T11:43:52.518Z,1.50
2018-07-08T11:46:30.589Z,2.03
2018-07-08T11:49:08.783Z,1.50
2018-07-08T11:51:42.374Z,1.70
2018-07-08T11:54:22.195Z,2.27
2018-07-08T11:59:40.305Z,1.60
2018-07-08T12:04:52.930Z,1.50
2018-07-08T12:07:25.079Z,1.70
2018-07-08T12:10:01.107Z,1.60
2018-07-08T12:12:36.122Z,1.50
2018-07-08T12:15:09.384Z,1.57
2018-07-08T12:17:43.495Z,1.33
2018-07-08T12:20:18.587Z,1.33
2018-07-08T12:23:00.069Z,1.50
2018-07-08T12:25:38.321Z,1.37
2018-07-08T12:28:09.549Z,1.30
2018-07-08T12:30:39.420Z,1.60
2018-07-08T12:33:15.442Z,1.57
2018-07-08T12:35:54.343Z,1.60
2018-07-08T12:38:30.728Z,1.77
2018-07-08T12:41:01.034Z,1.80
2018-07-08T12:43:41.327Z,2.00
2018-07-08T12:46:15.500Z,1.70
2018-07-08T12:48:48.270Z,1.80
2018-07-08T12:51:22.338Z,1.90
2018-07-08T12:54:00.887Z,1.60
2018-07-08T12:56:30.743Z,1.40
2018-07-08T12:59:06.845Z,1.40
2018-07-08T13:01:48.962Z,1.70
2018-07-08T13:04:22.949Z,1.63
2018-07-08T13:06:54.318Z,1.60
2018-07-08T13:09:25.122Z,1.83
2018-07-08T13:11:57.808Z,1.60
2018-07-08T13:14:28.147Z,1.60
2018-07-08T13:17:01.638Z,1.90
2018-07-08T13:19:32.158Z,1.53
2018-07-08T13:22:04.512Z,1.60
2018-07-08T13:24:37.951Z,1.40
2018-07-08T13:27:10.415Z,1.50
2018-07-08T13:29:40.982Z,1.37
2018-07-08T13:32:12.825Z,1.30
2018-07-08T13:34:48.979Z,1.50
2018-07-08T13:42:51.597Z,2.13
2018-07-08T13:45:24.181Z,1.60
2018-07-08T13:47:58.542Z,1.80
2018-07-08T13:50:28.922Z,1.60
2018-07-08T13:52:59.553Z,1.57
2018-07-08T13:55:29.063Z,1.93
2018-07-08T14:00:32.734Z,1.50
2018-07-08T14:03:04.805Z,1.70
2018-07-08T14:05:40.017Z,1.30
2018-07-08T14:08:14.909Z,1.47
2018-07-08T14:10:44.432Z,1.27
2018-07-08T14:13:13.962Z,1.43
2018-07-08T14:18:26.695Z,1.23
2018-07-08T14:20:56.182Z,1.30
2018-07-08T14:23:26.988Z,1.20
2018-07-08T14:25:57.571Z,1.40
2018-07-08T14:28:27.359Z,1.33
2018-07-08T14:30:56.972Z,1.60
2018-07-08T14:33:31.421Z,2.00
2018-07-08T14:36:04.283Z,1.33
2018-07-08T14:38:36.552Z,1.40
2018-07-08T14:41:05.786Z,1.33
2018-07-08T14:43:35.223Z,1.50
2018-07-08T14:46:04.689Z,1.47
2018-07-08T14:48:37.648Z,1.60
2018-07-08T14:51:12.362Z,1.70
2018-07-08T14:53:48.083Z,1.30
2018-07-08T14:56:26.939Z,1.40
2018-07-08T15:04:27.452Z,1.33
2018-07-08T15:09:46.790Z,1.50
2018-07-08T15:12:26.053Z,1.67
2018-07-08T15:15:05.729Z,1.77
2018-07-08T15:23:05.425Z,1.50
2018-07-08T15:28:30.215Z,1.57
2018-07-08T15:31:09.804Z,4.03
2018-07-08T15:33:49.033Z,1.70
2018-07-08T15:36:21.981Z,1.60
2018-07-08T15:39:00.480Z,1.70
2018-07-08T15:41:39.756Z,1.63
2018-07-08T15:44:17.756Z,2.20
2018-07-08T15:49:29.369Z,1.40
2018-07-08T15:52:10.328Z,1.70
2018-07-08T15:54:42.464Z,1.30
2018-07-08T15:57:15.409Z,1.50
2018-07-08T15:59:49.158Z,1.40
2018-07-08T16:02:32.296Z,2.50
2018-07-08T16:05:07.410Z,1.70
2018-07-08T16:07:45.945Z,1.60
2018-07-08T16:10:26.454Z,1.40
2018-07-08T16:13:04.409Z,1.50
2018-07-08T16:18:25.400Z,1.77
2018-07-08T16:21:02.420Z,1.97
2018-07-08T16:23:36.397Z,2.67
2018-07-08T16:26:15.721Z,1.70
2018-07-08T16:31:49.267Z,1.83
2018-07-08T16:34:40.228Z,1.87
2018-07-08T16:37:23.342Z,2.33
2018-07-08T16:40:08.466Z,2.10
2018-07-08T16:45:32.685Z,2.47
2018-07-08T16:50:57.010Z,2.57
2018-07-08T16:53:36.091Z,2.03
2018-07-08T16:56:08.886Z,2.60
2018-07-08T16:58:47.335Z,2.80
2018-07-08T17:06:33.226Z,2.87
2018-07-08T17:11:51.544Z,2.73
2018-07-08T17:14:24.096Z,2.40
2018-07-08T17:16:59.062Z,3.27
2018-07-08T17:19:37.784Z,2.67
2018-07-08T17:24:56.951Z,2.97
2018-07-08T17:27:29.048Z,2.97
2018-07-08T18:06:40.418Z,2.90
2018-07-08T18:09:16.181Z,2.77
2018-07-08T18:11:53.886Z,2.63
2018-07-08T18:19:59.919Z,2.67
2018-07-08T18:22:36.543Z,2.80
2018-07-08T18:25:17.692Z,3.00
2018-07-08T18:33:23.122Z,4.27
2018-07-08T18:36:10.642Z,3.67
2018-07-08T18:44:31.567Z,3.27
2018-07-08T18:47:09.840Z,3.10
2018-07-08T18:57:58.298Z,2.93
2018-07-08T19:00:37.717Z,3.33
2018-07-08T19:05:55.724Z,3.00
2018-07-08T19:14:29.490Z,3.10
2018-07-08T19:17:07.532Z,3.10
2018-07-08T19:25:34.615Z,3.53
2018-07-08T19:31:00.213Z,3.20
2018-07-08T19:33:38.261Z,3.10
2018-07-08T19:47:29.573Z,4.00
2018-07-08T19:50:06.387Z,3.83
2018-07-08T19:52:44.020Z,3.60
2018-07-08T19:55:21.205Z,3.80
2018-07-08T20:06:25.022Z,3.00
2018-07-08T20:22:52.860Z,3.13
2018-07-08T20:28:11.153Z,3.10
2018-07-08T20:30:47.314Z,3.10
2018-07-08T20:33:21.260Z,2.80
2018-07-08T20:38:43.003Z,2.60
2018-07-08T20:41:14.640Z,2.60
2018-07-08T20:43:44.490Z,2.80
2018-07-08T20:46:15.703Z,2.87
2018-07-08T20:48:58.982Z,2.50
2018-07-08T20:51:32.503Z,2.60
2018-07-08T20:54:14.573Z,2.47
2018-07-08T20:59:37.154Z,2.43
2018-07-08T21:02:12.056Z,2.63
2018-07-08T21:04:42.056Z,2.53
2018-07-08T21:07:19.996Z,2.50
2018-07-08T21:09:53.557Z,2.70
2018-07-08T21:12:30.986Z,2.60
2018-07-08T21:15:03.817Z,2.80
2018-07-08T21:17:45.668Z,3.60
2018-07-08T21:23:09.562Z,2.93
2018-07-08T21:25:41.835Z,3.03
2018-07-08T21:28:20.812Z,3.13
2018-07-08T21:33:37.910Z,3.13
2018-07-08T21:36:12.259Z,3.37
2018-07-08T21:38:42.735Z,2.70
2018-07-08T21:41:17.126Z,3.10
2018-07-08T21:43:52.854Z,3.00
2018-07-08T21:46:24.970Z,2.90
2018-07-08T21:48:54.891Z,2.57
2018-07-08T21:51:24.952Z,2.80
2018-07-08T21:53:55.088Z,2.57
2018-07-08T21:56:36.109Z,3.00
2018-07-08T21:59:08.965Z,2.87
2018-07-08T22:02:05.931Z,2.57
2018-07-08T22:04:38.270Z,2.83
2018-07-08T22:07:27.240Z,2.37
2018-07-08T22:10:02.027Z,2.73
2018-07-08T22:12:37.913Z,2.80
2018-07-08T22:15:16.602Z,3.00
2018-07-08T22:17:48.161Z,2.87
2018-07-08T22:20:18.272Z,2.97
2018-07-08T22:22:50.242Z,2.80
2018-07-08T22:25:20.055Z,2.80
2018-07-08T22:27:55.372Z,2.70
2018-07-08T22:30:26.870Z,2.70
2018-07-08T22:32:56.733Z,2.73
2018-07-08T22:35:27.189Z,2.80
2018-07-08T22:37:58.369Z,2.80
2018-07-08T22:40:32.936Z,2.83
2018-07-08T22:45:52.020Z,2.67
2018-07-08T22:48:29.966Z,2.73
2018-07-08T22:51:03.066Z,3.00
2018-07-08T22:53:34.169Z,2.70
2018-07-08T23:01:40.432Z,2.50
2018-07-08T23:09:50.250Z,2.57
2018-07-08T23:12:34.371Z,2.80
2018-07-08T23:15:19.063Z,3.07
2018-07-08T23:17:53.701Z,2.33
2018-07-08T23:28:26.556Z,2.40
2018-07-08T23:30:59.476Z,2.60
2018-07-08T23:33:33.378Z,2.50
2018-07-08T23:36:14.702Z,2.57
2018-07-08T23:38:49.632Z,2.40
2018-07-08T23:41:24.131Z,2.50
2018-07-08T23:43:58.510Z,2.70
2018-07-08T23:46:33.010Z,2.60
2018-07-08T23:49:02.862Z,2.40
2018-07-08T23:51:32.252Z,2.50
2018-07-08T23:54:01.417Z,2.43
2018-07-08T23:56:31.003Z,2.97
2018-07-08T23:59:00.476Z,2.23
